createdAt,value
2022-08-19T00:02:00.192Z,8.70
2022-08-19T00:04:31.920Z,8.20
2022-08-19T00:06:59.958Z,8.30
2022-08-19T00:09:27.768Z,7.80
2022-08-19T00:11:57.344Z,8.40
2022-08-19T00:14:25.935Z,8.00
2022-08-19T00:16:55.276Z,8.60
2022-08-19T00:19:23.963Z,8.70
2022-08-19T00:21:51.765Z,9.40
2022-08-19T00:24:18.405Z,10.10
2022-08-19T00:26:46.634Z,9.90
2022-08-19T00:29:18.868Z,10.40
2022-08-19T00:31:47.045Z,9.50
2022-08-19T00:34:16.065Z,9.50
2022-08-19T00:36:44.309Z,9.30
2022-08-19T00:39:13.769Z,9.40
2022-08-19T00:41:41.223Z,9.40
2022-08-19T00:44:14.436Z,9.00
2022-08-19T00:46:51.595Z,9.00
2022-08-19T00:49:37.507Z,9.80
2022-08-19T00:52:23.561Z,9.80
2022-08-19T00:54:52.937Z,9.20
2022-08-19T00:57:28.239Z,9.90
2022-08-19T01:00:02.681Z,9.60
2022-08-19T01:02:32.597Z,9.50
2022-08-19T01:05:03.605Z,9.10
2022-08-19T01:07:35.910Z,8.90
2022-08-19T01:10:09.746Z,9.40
2022-08-19T01:12:37.402Z,8.90
2022-08-19T01:15:07.422Z,9.90
2022-08-19T01:17:37.383Z,10.00
2022-08-19T01:20:05.573Z,8.50
2022-08-19T01:22:40.820Z,8.30
2022-08-19T01:25:14.814Z,9.20
2022-08-19T01:27:47.940Z,9.50
2022-08-19T01:30:25.814Z,11.20
2022-08-19T01:32:54.610Z,9.90
2022-08-19T01:35:24.346Z,10.00
2022-08-19T01:37:57.798Z,9.50
2022-08-19T01:40:30.288Z,9.30
2022-08-19T01:42:56.836Z,10.30
2022-08-19T01:45:27.300Z,8.60
2022-08-19T01:48:02.264Z,9.10
2022-08-19T01:50:31.646Z,8.40
2022-08-19T01:53:05.833Z,9.00
2022-08-19T01:55:40.655Z,8.40
2022-08-19T01:58:15.508Z,9.60
2022-08-19T02:00:43.580Z,9.40
2022-08-19T02:03:11.024Z,10.10
2022-08-19T02:05:38.587Z,9.20
2022-08-19T02:08:06.687Z,9.50
2022-08-19T02:13:21.090Z,9.30
2022-08-19T02:15:53.158Z,9.30
2022-08-19T02:18:19.849Z,9.80
2022-08-19T02:20:48.438Z,9.40
2022-08-19T02:23:17.845Z,9.60
2022-08-19T02:25:48.982Z,9.40
2022-08-19T02:28:18.701Z,8.70
2022-08-19T02:30:47.924Z,9.30
2022-08-19T02:33:14.981Z,8.50
2022-08-19T02:35:48.220Z,9.00
2022-08-19T02:38:27.494Z,8.50
2022-08-19T02:41:00.079Z,9.10
2022-08-19T02:43:29.258Z,9.70
2022-08-19T02:46:01.260Z,8.90
2022-08-19T02:48:27.941Z,9.30
2022-08-19T02:50:57.489Z,8.40
2022-08-19T02:53:28.181Z,8.50
2022-08-19T02:55:55.444Z,8.70
2022-08-19T02:58:24.013Z,8.70
2022-08-19T03:00:56.253Z,8.50
2022-08-19T03:03:22.961Z,9.10
2022-08-19T03:05:56.843Z,8.80
2022-08-19T03:08:25.309Z,8.70
2022-08-19T03:10:53.819Z,8.90
2022-08-19T03:13:20.606Z,8.60
2022-08-19T03:15:49.258Z,9.30
2022-08-19T03:18:18.045Z,9.00
2022-08-19T03:20:53.793Z,8.50
2022-08-19T03:23:20.507Z,8.70
2022-08-19T03:26:02.823Z,8.10
2022-08-19T03:28:38.301Z,8.90
2022-08-19T03:31:41.919Z,8.20
2022-08-19T03:33:58.252Z,8.50
2022-08-19T03:36:28.612Z,8.60
2022-08-19T03:39:00.827Z,9.20
2022-08-19T03:42:29.252Z,9.00
2022-08-19T03:44:38.780Z,9.40
2022-08-19T03:47:06.537Z,9.40
2022-08-19T03:49:36.005Z,9.10
2022-08-19T03:52:08.111Z,8.40
2022-08-19T03:54:36.046Z,8.70
2022-08-19T03:57:03.965Z,9.00
2022-08-19T03:59:34.608Z,8.70
2022-08-19T04:02:06.208Z,8.50
2022-08-19T04:04:32.805Z,8.40
2022-08-19T04:06:59.337Z,9.10
2022-08-19T04:09:26.902Z,8.10
2022-08-19T04:11:57.462Z,8.60
2022-08-19T04:14:31.277Z,8.70
2022-08-19T04:17:00.434Z,9.00
2022-08-19T04:19:30.417Z,8.60
2022-08-19T04:21:56.945Z,8.50
2022-08-19T04:24:24.282Z,9.50
2022-08-19T04:26:52.264Z,9.20
2022-08-19T04:29:26.125Z,9.30
2022-08-19T04:31:55.760Z,8.50
2022-08-19T04:34:25.732Z,8.50
2022-08-19T04:36:54.606Z,8.40
2022-08-19T04:39:50.062Z,8.30
2022-08-19T04:42:38.008Z,8.30
2022-08-19T04:45:12.470Z,8.10
2022-08-19T04:47:47.651Z,8.90
2022-08-19T04:50:27.626Z,8.40
2022-08-19T04:52:56.341Z,8.80
2022-08-19T04:55:23.161Z,8.00
2022-08-19T04:57:49.861Z,7.60
2022-08-19T05:00:16.562Z,7.60
2022-08-19T05:02:43.284Z,8.30
2022-08-19T05:05:10.546Z,8.30
2022-08-19T05:07:37.943Z,8.30
2022-08-19T05:10:06.890Z,8.60
2022-08-19T05:12:33.995Z,8.60
2022-08-19T05:15:01.743Z,7.90
2022-08-19T05:17:32.366Z,8.00
2022-08-19T05:20:20.848Z,8.10
2022-08-19T05:22:48.807Z,7.80
2022-08-19T05:25:20.725Z,7.70
2022-08-19T05:27:48.635Z,8.30
2022-08-19T05:30:17.227Z,8.50
2022-08-19T05:32:44.486Z,8.00
2022-08-19T05:35:12.712Z,8.00
2022-08-19T05:37:41.350Z,8.30
2022-08-19T05:40:10.700Z,7.90
2022-08-19T05:42:38.347Z,8.30
2022-08-19T05:45:05.679Z,8.60
2022-08-19T05:47:33.031Z,8.40
2022-08-19T05:49:59.727Z,8.80
2022-08-19T05:52:29.094Z,8.90
2022-08-19T05:54:57.177Z,8.60
2022-08-19T05:57:25.331Z,8.30
2022-08-19T05:59:58.322Z,7.80
2022-08-19T06:02:27.773Z,8.20
2022-08-19T06:04:54.336Z,8.00
2022-08-19T06:07:20.896Z,9.00
2022-08-19T06:10:00.135Z,8.70
2022-08-19T06:12:34.048Z,8.00
2022-08-19T06:15:12.417Z,7.60
2022-08-19T06:17:39.189Z,7.90
2022-08-19T06:20:14.297Z,7.40
2022-08-19T06:22:44.875Z,8.00
2022-08-19T06:25:14.784Z,7.70
2022-08-19T06:28:11.465Z,8.90
2022-08-19T06:30:29.550Z,8.60
2022-08-19T06:32:56.081Z,8.80
2022-08-19T06:35:22.800Z,8.70
2022-08-19T06:37:49.449Z,8.50
2022-08-19T06:40:16.096Z,7.90
2022-08-19T06:42:44.410Z,8.00
2022-08-19T06:45:21.521Z,8.10
2022-08-19T06:47:56.769Z,8.20
2022-08-19T06:50:26.488Z,7.50
2022-08-19T06:52:53.611Z,7.60
2022-08-19T06:55:20.715Z,7.90
2022-08-19T06:57:47.441Z,8.00
2022-08-19T07:00:14.986Z,9.30
2022-08-19T07:02:49.827Z,7.70
2022-08-19T07:05:24.126Z,8.40
2022-08-19T07:07:51.184Z,8.00
2022-08-19T07:10:18.641Z,8.10
2022-08-19T07:12:45.397Z,8.00
2022-08-19T07:15:13.149Z,8.30
2022-08-19T07:17:40.375Z,7.40
2022-08-19T07:20:10.544Z,8.10
2022-08-19T07:22:41.305Z,8.40
2022-08-19T07:25:09.921Z,8.40
2022-08-19T07:27:38.004Z,8.30
2022-08-19T07:30:11.655Z,8.40
2022-08-19T07:32:39.171Z,8.00
2022-08-19T07:35:07.101Z,7.90
2022-08-19T07:37:33.732Z,8.80
2022-08-19T07:40:02.519Z,8.30
2022-08-19T07:42:30.771Z,7.90
2022-08-19T07:44:57.878Z,8.10
2022-08-19T07:47:50.090Z,9.20
2022-08-19T07:50:12.623Z,8.50
2022-08-19T07:52:40.742Z,8.90
2022-08-19T07:55:13.607Z,9.10
2022-08-19T07:57:58.259Z,9.00
2022-08-19T08:00:25.285Z,9.10
2022-08-19T08:02:55.544Z,9.30
2022-08-19T08:05:44.237Z,8.90
2022-08-19T08:08:32.180Z,9.00
2022-08-19T08:10:59.663Z,8.80
2022-08-19T08:13:27.990Z,8.50
2022-08-19T08:15:54.727Z,8.70
2022-08-19T08:18:22.734Z,9.00
2022-08-19T08:20:54.890Z,8.50
2022-08-19T08:23:26.069Z,8.20
2022-08-19T08:25:56.190Z,8.50
2022-08-19T08:28:24.113Z,8.50
2022-08-19T08:30:52.020Z,8.90
2022-08-19T08:33:33.259Z,8.40
2022-08-19T08:36:07.254Z,8.40
2022-08-19T08:38:39.735Z,8.40
2022-08-19T08:41:45.991Z,7.40
2022-08-19T08:44:22.031Z,7.90
2022-08-19T08:46:56.694Z,7.80
2022-08-19T08:49:29.539Z,7.80
2022-08-19T08:52:04.341Z,7.60
2022-08-19T08:54:41.514Z,8.00
2022-08-19T08:57:44.395Z,7.30
2022-08-19T09:00:27.552Z,7.20
2022-08-19T09:02:55.910Z,7.70
2022-08-19T09:05:28.527Z,7.70
2022-08-19T09:08:37.611Z,7.90
2022-08-19T09:11:11.564Z,7.50
2022-08-19T09:13:56.616Z,7.80
2022-08-19T09:16:28.029Z,8.10
2022-08-19T09:19:04.606Z,7.50
2022-08-19T09:21:34.246Z,7.80
2022-08-19T09:24:03.318Z,7.90
2022-08-19T09:26:48.631Z,7.20
2022-08-19T09:29:22.531Z,7.50
2022-08-19T09:31:50.828Z,7.80
2022-08-19T09:34:21.730Z,7.70
2022-08-19T09:36:53.952Z,7.60
2022-08-19T09:39:21.767Z,7.40
2022-08-19T09:41:49.162Z,7.60
2022-08-19T09:44:16.973Z,7.90
2022-08-19T09:46:44.800Z,8.40
2022-08-19T09:49:11.385Z,7.90
2022-08-19T09:51:39.961Z,7.40
2022-08-19T09:54:07.650Z,7.50
2022-08-19T09:56:38.045Z,7.60
2022-08-19T09:59:05.122Z,7.50
2022-08-19T10:01:33.422Z,8.20
2022-08-19T10:04:07.590Z,7.80
2022-08-19T10:06:46.518Z,8.10
2022-08-19T10:09:15.722Z,7.80
2022-08-19T10:11:54.636Z,8.30
2022-08-19T10:14:24.567Z,7.70
2022-08-19T10:16:52.804Z,7.40
2022-08-19T10:19:25.725Z,7.80
2022-08-19T10:21:54.418Z,7.90
2022-08-19T10:24:25.288Z,8.10
2022-08-19T10:26:55.802Z,7.00
2022-08-19T10:29:31.796Z,7.80
2022-08-19T10:32:03.132Z,7.90
2022-08-19T10:34:32.055Z,7.80
2022-08-19T10:37:01.971Z,7.70
2022-08-19T10:39:31.164Z,7.70
2022-08-19T10:41:58.543Z,7.70
2022-08-19T10:44:32.051Z,7.90
2022-08-19T10:47:00.002Z,7.90
2022-08-19T10:49:28.084Z,8.10
2022-08-19T10:52:19.081Z,7.00
2022-08-19T10:55:08.614Z,7.40
2022-08-19T10:57:59.370Z,7.50
2022-08-19T11:00:24.214Z,7.70
2022-08-19T11:02:51.692Z,7.10
2022-08-19T11:05:19.229Z,7.90
2022-08-19T11:07:46.404Z,7.20
2022-08-19T11:10:20.918Z,7.00
2022-08-19T11:12:48.564Z,7.20
2022-08-19T11:15:15.535Z,7.60
2022-08-19T11:17:44.152Z,7.10
2022-08-19T11:20:14.093Z,6.90
2022-08-19T11:22:42.123Z,6.90
2022-08-19T11:25:12.074Z,6.80
2022-08-19T11:27:44.007Z,7.20
2022-08-19T11:30:13.867Z,7.40
2022-08-19T11:32:49.055Z,7.20
2022-08-19T11:35:17.479Z,7.30
2022-08-19T11:37:44.101Z,7.30
2022-08-19T11:40:11.725Z,6.90
2022-08-19T11:42:57.499Z,6.40
2022-08-19T11:45:30.181Z,6.70
2022-08-19T11:47:57.117Z,7.40
2022-08-19T11:50:25.350Z,7.20
2022-08-19T11:52:57.035Z,7.40
2022-08-19T11:55:24.538Z,7.00
2022-08-19T11:57:51.097Z,7.00
2022-08-19T12:00:17.712Z,7.30
2022-08-19T12:02:44.547Z,6.60
2022-08-19T12:05:12.985Z,7.40
2022-08-19T12:07:41.756Z,7.40
2022-08-19T12:10:09.149Z,7.00
2022-08-19T12:12:43.630Z,7.00
2022-08-19T12:15:11.899Z,6.80
2022-08-19T12:17:39.425Z,7.30
2022-08-19T12:20:07.980Z,6.90
2022-08-19T12:22:35.909Z,6.90
2022-08-19T12:25:02.508Z,7.10
2022-08-19T12:27:35.710Z,7.00
2022-08-19T12:30:11.380Z,6.70
2022-08-19T12:32:38.401Z,6.70
2022-08-19T12:35:06.855Z,7.10
2022-08-19T12:37:33.673Z,6.50
2022-08-19T12:40:01.062Z,7.00
2022-08-19T12:42:27.927Z,6.50
2022-08-19T12:44:54.556Z,6.70
2022-08-19T12:47:21.997Z,7.00
2022-08-19T12:49:53.407Z,7.40
2022-08-19T12:52:23.487Z,6.60
2022-08-19T12:54:54.318Z,7.00
2022-08-19T12:57:31.732Z,6.50
2022-08-19T13:00:13.111Z,6.50
2022-08-19T13:02:44.829Z,6.70
2022-08-19T13:05:17.514Z,6.70
2022-08-19T13:07:44.947Z,6.80
2022-08-19T13:10:16.577Z,6.60
2022-08-19T13:12:45.528Z,6.70
2022-08-19T13:15:13.189Z,6.30
2022-08-19T13:17:42.501Z,6.50
2022-08-19T13:20:11.358Z,7.00
2022-08-19T13:22:38.752Z,7.00
2022-08-19T13:25:07.292Z,7.00
2022-08-19T13:27:34.300Z,6.60
2022-08-19T13:30:20.419Z,6.60
2022-08-19T13:33:05.930Z,7.20
2022-08-19T13:35:32.511Z,6.40
2022-08-19T13:37:59.137Z,6.30
2022-08-19T13:40:27.878Z,6.40
2022-08-19T13:42:56.036Z,7.40
2022-08-19T13:45:25.975Z,6.70
2022-08-19T13:47:59.247Z,7.10
2022-08-19T13:50:34.393Z,7.00
2022-08-19T13:53:03.388Z,7.20
2022-08-19T13:55:29.971Z,7.20
2022-08-19T13:58:00.197Z,7.10
2022-08-19T14:00:31.417Z,6.70
2022-08-19T14:02:58.740Z,6.70
2022-08-19T14:05:29.315Z,7.00
2022-08-19T14:07:57.233Z,6.70
2022-08-19T14:10:25.436Z,6.90
2022-08-19T14:13:02.967Z,6.80
2022-08-19T14:15:30.627Z,7.30
2022-08-19T14:17:58.022Z,7.10
2022-08-19T14:20:26.055Z,7.10
2022-08-19T14:22:54.235Z,6.70
2022-08-19T14:25:27.776Z,7.00
2022-08-19T14:27:55.179Z,6.70
2022-08-19T14:30:34.646Z,6.90
2022-08-19T14:33:03.227Z,6.70
2022-08-19T14:35:35.531Z,6.60
2022-08-19T14:38:05.415Z,6.90
2022-08-19T14:40:32.859Z,6.60
2022-08-19T14:43:05.583Z,6.60
2022-08-19T14:45:36.894Z,6.60
2022-08-19T14:48:06.746Z,7.10
2022-08-19T14:50:34.748Z,7.50
2022-08-19T14:53:12.288Z,7.40
2022-08-19T14:55:43.990Z,6.80
2022-08-19T14:58:29.217Z,7.20
2022-08-19T15:00:57.448Z,6.70
2022-08-19T15:03:24.077Z,6.90
2022-08-19T15:05:50.621Z,6.70
2022-08-19T15:08:17.203Z,6.90
2022-08-19T15:10:43.680Z,7.60
2022-08-19T15:13:10.491Z,7.00
2022-08-19T15:15:37.081Z,6.90
2022-08-19T15:18:04.808Z,6.70
2022-08-19T15:20:31.999Z,7.10
2022-08-19T15:22:59.981Z,6.90
2022-08-19T15:25:28.134Z,6.90
2022-08-19T15:27:54.889Z,6.60
2022-08-19T15:30:27.964Z,6.80
2022-08-19T15:32:58.485Z,6.80
2022-08-19T15:35:27.040Z,6.90
2022-08-19T15:37:54.904Z,6.50
2022-08-19T15:40:25.290Z,6.50
2022-08-19T15:42:53.147Z,6.60
2022-08-19T15:45:22.340Z,6.50
2022-08-19T15:47:49.056Z,7.00
2022-08-19T15:50:23.726Z,7.00
2022-08-19T15:53:01.262Z,6.80
2022-08-19T15:55:34.643Z,7.30
2022-08-19T15:58:28.856Z,7.20
2022-08-19T16:01:21.345Z,7.20
2022-08-19T16:04:14.279Z,7.10
2022-08-19T16:06:58.970Z,7.20
2022-08-19T16:09:29.472Z,7.20
2022-08-19T16:12:01.870Z,7.40
2022-08-19T16:14:31.624Z,7.80
2022-08-19T16:16:58.252Z,8.20
2022-08-19T16:19:25.798Z,8.30
2022-08-19T16:21:56.756Z,8.50
2022-08-19T16:24:27.822Z,8.50
2022-08-19T16:26:56.332Z,9.20
2022-08-19T16:29:34.295Z,8.90
2022-08-19T16:32:10.390Z,8.60
2022-08-19T16:34:40.653Z,8.70
2022-08-19T16:37:08.064Z,8.80
2022-08-19T16:39:34.684Z,9.40
2022-08-19T16:42:02.074Z,8.80
2022-08-19T16:44:29.789Z,8.70
2022-08-19T16:46:59.685Z,8.70
2022-08-19T16:49:53.817Z,9.40
2022-08-19T16:52:19.442Z,9.30
2022-08-19T16:54:47.008Z,9.10
2022-08-19T16:57:13.710Z,10.00
2022-08-19T16:59:44.155Z,9.40
2022-08-19T17:02:17.925Z,9.40
2022-08-19T17:04:44.465Z,9.70
2022-08-19T17:07:23.749Z,9.70
2022-08-19T17:09:50.785Z,9.20
2022-08-19T17:12:17.290Z,9.40
2022-08-19T17:14:45.752Z,9.70
2022-08-19T17:17:12.877Z,9.00
2022-08-19T17:19:44.515Z,9.00
2022-08-19T17:22:12.952Z,9.60
2022-08-19T17:24:40.527Z,9.30
2022-08-19T17:27:07.910Z,9.80
2022-08-19T17:29:35.296Z,9.10
2022-08-19T17:32:03.066Z,9.30
2022-08-19T17:34:29.636Z,9.30
2022-08-19T17:36:57.024Z,9.00
2022-08-19T17:39:23.864Z,9.70
2022-08-19T17:41:50.409Z,9.30
2022-08-19T17:44:18.916Z,9.80
2022-08-19T17:46:46.778Z,9.50
2022-08-19T17:49:14.228Z,9.20
2022-08-19T17:51:47.281Z,9.40
2022-08-19T17:54:18.675Z,9.10
2022-08-19T17:56:46.444Z,9.40
2022-08-19T17:59:14.516Z,8.80
2022-08-19T18:01:53.310Z,9.10
2022-08-19T18:04:25.408Z,9.70
2022-08-19T18:06:55.050Z,8.90
2022-08-19T18:09:30.151Z,9.90
2022-08-19T18:12:14.159Z,28.80
2022-08-19T18:14:41.464Z,13.60
2022-08-19T18:17:12.498Z,11.00
2022-08-19T18:19:43.590Z,10.20
2022-08-19T18:22:22.552Z,10.10
2022-08-19T18:24:49.516Z,9.70
2022-08-19T18:27:16.069Z,9.40
2022-08-19T18:29:43.318Z,10.00
2022-08-19T18:32:13.294Z,10.00
2022-08-19T18:34:42.353Z,9.80
2022-08-19T18:37:09.602Z,9.90
2022-08-19T18:39:55.098Z,9.70
2022-08-19T18:42:40.164Z,10.00
2022-08-19T18:45:26.452Z,9.60
2022-08-19T18:48:26.593Z,9.40
2022-08-19T18:50:58.108Z,8.80
2022-08-19T18:53:27.915Z,8.80
2022-08-19T18:55:55.243Z,10.10
2022-08-19T18:58:32.322Z,9.40
2022-08-19T19:01:10.966Z,9.80
2022-08-19T19:03:45.476Z,9.70
2022-08-19T19:06:27.572Z,9.50
2022-08-19T19:08:55.147Z,9.40
2022-08-19T19:11:27.529Z,9.50
2022-08-19T19:13:54.647Z,9.70
2022-08-19T19:16:24.437Z,9.40
2022-08-19T19:18:52.811Z,9.80
2022-08-19T19:21:23.109Z,9.70
2022-08-19T19:23:51.247Z,9.60
2022-08-19T19:26:18.370Z,9.60
2022-08-19T19:28:45.914Z,9.30
2022-08-19T19:31:20.600Z,9.10
2022-08-19T19:33:47.272Z,9.80
2022-08-19T19:36:14.322Z,9.00
2022-08-19T19:38:48.290Z,9.20
2022-08-19T19:41:24.602Z,9.40
2022-08-19T19:44:16.371Z,9.70
2022-08-19T19:46:45.227Z,9.80
2022-08-19T19:49:12.902Z,9.80
2022-08-19T19:51:41.253Z,9.30
2022-08-19T19:54:14.318Z,9.50
2022-08-19T19:56:46.120Z,9.80
2022-08-19T19:59:13.254Z,9.70
2022-08-19T20:01:40.790Z,10.00
2022-08-19T20:04:10.881Z,9.90
2022-08-19T20:06:37.402Z,9.20
2022-08-19T20:09:17.545Z,9.20
2022-08-19T20:11:53.624Z,9.30
2022-08-19T20:14:26.582Z,9.80
2022-08-19T20:16:55.723Z,9.40
2022-08-19T20:19:27.172Z,9.50
2022-08-19T20:21:55.851Z,9.80
2022-08-19T20:24:29.891Z,9.40
2022-08-19T20:26:56.396Z,9.80
2022-08-19T20:29:38.312Z,9.60
2022-08-19T20:32:06.229Z,9.90
2022-08-19T20:34:33.825Z,9.80
2022-08-19T20:37:00.397Z,9.60
2022-08-19T20:39:26.943Z,9.90
2022-08-19T20:41:53.453Z,10.00
2022-08-19T20:44:20.071Z,12.30
2022-08-19T20:46:55.255Z,13.30
2022-08-19T20:49:27.498Z,12.60
2022-08-19T20:51:56.120Z,10.50
2022-08-19T20:54:22.724Z,10.00
2022-08-19T20:56:49.246Z,9.20
2022-08-19T20:59:15.749Z,10.70
2022-08-19T21:01:42.375Z,10.30
2022-08-19T21:04:08.874Z,11.80
2022-08-19T21:06:35.556Z,12.20
2022-08-19T21:09:02.058Z,12.90
2022-08-19T21:11:29.391Z,13.10
2022-08-19T21:13:57.033Z,13.00
2022-08-19T21:16:23.571Z,11.00
2022-08-19T21:18:50.260Z,9.60
2022-08-19T21:21:17.014Z,9.80
2022-08-19T21:23:44.143Z,8.70
2022-08-19T21:26:11.554Z,8.20
2022-08-19T21:28:38.043Z,8.30
2022-08-19T21:31:07.459Z,8.60
2022-08-19T21:33:34.443Z,7.90
2022-08-19T21:36:01.048Z,8.00
2022-08-19T21:38:27.651Z,7.40
2022-08-19T21:40:55.410Z,7.10
2022-08-19T21:43:23.287Z,7.10
2022-08-19T21:45:51.026Z,7.10
2022-08-19T21:48:18.384Z,6.90
2022-08-19T21:50:48.345Z,7.20
2022-08-19T21:53:19.332Z,7.10
2022-08-19T21:55:53.417Z,7.40
2022-08-19T21:58:28.247Z,7.00
2022-08-19T22:01:00.262Z,6.80
2022-08-19T22:03:27.362Z,7.40
2022-08-19T22:05:53.972Z,7.60
2022-08-19T22:08:20.675Z,7.70
2022-08-19T22:10:49.030Z,7.50
2022-08-19T22:13:17.470Z,7.70
2022-08-19T22:15:45.690Z,7.20
2022-08-19T22:18:13.628Z,7.30
2022-08-19T22:20:40.256Z,8.00
2022-08-19T22:23:07.934Z,8.30
2022-08-19T22:25:45.952Z,8.00
2022-08-19T22:28:18.876Z,7.60
2022-08-19T22:30:54.038Z,7.60
2022-08-19T22:33:22.680Z,8.10
2022-08-19T22:35:52.591Z,7.80
2022-08-19T22:38:19.406Z,7.20
2022-08-19T22:40:48.863Z,7.20
2022-08-19T22:43:24.263Z,7.20
2022-08-19T22:45:54.551Z,7.40
2022-08-19T22:48:28.165Z,7.60
2022-08-19T22:51:15.317Z,8.30
2022-08-19T22:53:46.909Z,8.40
2022-08-19T22:56:18.385Z,8.20
2022-08-19T22:58:47.188Z,7.90
2022-08-19T23:01:27.203Z,7.60
2022-08-19T23:03:58.935Z,7.60
2022-08-19T23:06:34.010Z,7.80
2022-08-19T23:09:07.291Z,7.80
2022-08-19T23:11:39.872Z,7.80
2022-08-19T23:14:09.556Z,7.90
2022-08-19T23:16:36.084Z,7.70
2022-08-19T23:19:03.493Z,7.80
2022-08-19T23:21:30.540Z,7.80
2022-08-19T23:23:57.273Z,8.10
2022-08-19T23:26:23.882Z,7.80
2022-08-19T23:29:09.252Z,8.50
2022-08-19T23:31:36.300Z,8.10
2022-08-19T23:34:03.605Z,8.40
2022-08-19T23:36:30.241Z,8.30
2022-08-19T23:38:57.945Z,8.10
2022-08-19T23:41:27.109Z,8.30
2022-08-19T23:43:55.073Z,9.00
2022-08-19T23:46:28.274Z,8.60
2022-08-19T23:48:56.190Z,8.40
2022-08-19T23:51:23.049Z,8.70
2022-08-19T23:53:49.717Z,9.10
2022-08-19T23:56:16.304Z,9.10
2022-08-19T23:58:42.891Z,8.90
